Time;durP1;ratioP1;P1;durP2;ratioP2;P2;SDS_P1;SDS_P2;PMS_P1;PMS_P2;Temp;Humidity;BMP_temperature;BMP_pressure;BME280_temperature;BME280_humidity;BME280_pressure;Samples;Min_cycle;Max_cycle;Signal;HPM_P1;HPM_P2
2023/05/26 00:00:56;;;;;;;1.83;0.80;;;;;;;29.51;33.93;101381.81;7396401;19;20015;-58
2023/05/26 00:03:23;;;;;;;1.02;0.63;;;;;;;29.49;33.82;101375.88;7400802;19;20010;-58
2023/05/26 00:05:49;;;;;;;0.75;0.70;;;;;;;29.28;33.90;101385.97;7396084;19;20010;-58
2023/05/26 00:08:15;;;;;;;2.70;0.40;;;;;;;29.23;33.70;101384.81;7393921;19;20033;-58
2023/05/26 00:10:41;;;;;;;0.80;0.50;;;;;;;29.08;34.38;101391.25;7397657;19;20018;-58
2023/05/26 00:13:07;;;;;;;2.08;1.13;;;;;;;28.92;34.43;101388.88;7396354;19;20011;-58
2023/05/26 00:15:33;;;;;;;0.30;0.20;;;;;;;29.30;33.75;101380.44;7400119;19;20006;-58
2023/05/26 00:18:01;;;;;;;3.00;0.77;;;;;;;29.38;33.93;101393.47;7397248;19;20006;-58
2023/05/26 00:20:27;;;;;;;3.70;1.50;;;;;;;29.63;33.55;101382.97;7396488;19;20011;-58
2023/05/26 00:22:54;;;;;;;4.97;0.88;;;;;;;29.92;33.55;101389.31;7395706;19;20011;-58
2023/05/26 00:25:21;;;;;;;2.97;1.17;;;;;;;29.99;33.78;101392.19;7398909;19;20007;-58
2023/05/26 00:27:47;;;;;;;0.40;0.40;;;;;;;30.06;33.63;101384.88;7395490;19;20017;-58
2023/05/26 00:30:13;;;;;;;0.55;0.50;;;;;;;30.11;33.63;101383.16;7394275;19;20011;-58
2023/05/26 00:32:39;;;;;;;2.05;0.50;;;;;;;30.16;33.72;101374.34;7395750;19;20011;-58
2023/05/26 00:35:06;;;;;;;3.15;0.63;;;;;;;30.15;33.24;101386.44;7396342;19;20021;-58
2023/05/26 00:37:32;;;;;;;2.80;1.17;;;;;;;30.32;33.31;101389.50;7398881;19;20467;-58
2023/05/26 00:40:00;;;;;;;0.80;0.80;;;;;;;30.26;33.13;101386.00;7394524;19;20424;-58
2023/05/26 00:42:27;;;;;;;6.03;0.93;;;;;;;30.01;33.73;101376.47;7393432;19;20035;-58
2023/05/26 00:44:53;;;;;;;0.80;0.65;;;;;;;30.15;33.14;101392.19;7393973;19;20415;-58
2023/05/26 00:47:19;;;;;;;0.85;0.50;;;;;;;30.12;33.16;101399.06;7394259;19;20541;-58
2023/05/26 00:49:46;;;;;;;0.75;0.75;;;;;;;30.10;33.54;101401.75;7399582;19;20019;-58
2023/05/26 00:52:12;;;;;;;0.75;0.20;;;;;;;30.13;33.16;101394.84;7393174;19;20015;-58
2023/05/26 00:54:39;;;;;;;0.82;0.70;;;;;;;30.15;33.22;101395.06;7395282;19;20011;-58
2023/05/26 00:57:07;;;;;;;0.82;0.75;;;;;;;30.12;33.04;101399.06;7393722;19;20011;-58
2023/05/26 00:59:34;;;;;;;0.60;0.50;;;;;;;32.17;31.09;101391.75;7394163;19;20021;-58
2023/05/26 01:02:01;;;;;;;0.95;0.47;;;;;;;32.29;30.98;101392.78;7397827;19;20010;-58
2023/05/26 01:04:27;;;;;;;2.22;0.60;;;;;;;32.46;30.77;101389.16;7394392;19;20015;-58
2023/05/26 01:06:55;;;;;;;2.75;0.70;;;;;;;32.40;30.03;101395.16;7394137;19;20023;-58
2023/05/26 01:09:22;;;;;;;2.95;0.88;;;;;;;32.26;30.08;101391.09;7390538;19;20041;-58
2023/05/26 01:12:01;;;;;;;3.30;1.58;;;;;;;32.25;30.66;101398.19;7394491;19;20015;-58
2023/05/26 01:14:39;;;;;;;0.50;0.50;;;;;;;32.29;30.40;101392.78;7389891;19;20035;-58
2023/05/26 01:17:12;;;;;;;0.40;0.38;;;;;;;32.53;30.70;101391.22;7391155;19;20368;-58
2023/05/26 01:20:07;;;;;;;1.95;1.58;;;;;;;32.68;30.22;101394.66;7395947;19;20006;-58
2023/05/26 01:22:56;;;;;;;0.77;0.68;;;;;;;32.95;30.25;101391.06;7394155;19;20034;-57
2023/05/26 01:25:46;;;;;;;0.50;0.50;;;;;;;33.24;30.34;101400.72;7391268;19;20030;-58
2023/05/26 01:28:25;;;;;;;2.33;1.17;;;;;;;33.19;30.32;101398.84;7392671;19;20045;-57
2023/05/26 01:30:53;;;;;;;4.03;0.93;;;;;;;33.08;30.07;101394.38;7394025;19;20017;-58
2023/05/26 01:33:20;;;;;;;1.23;1.00;;;;;;;33.07;30.03;101395.00;7392218;19;20232;-58
2023/05/26 01:35:46;;;;;;;1.45;1.00;;;;;;;33.07;29.95;101386.34;7394019;19;20011;-58
2023/05/26 01:38:13;;;;;;;4.90;0.45;;;;;;;32.92;30.02;101395.16;7391357;19;20010;-58
2023/05/26 01:40:42;;;;;;;0.50;0.50;;;;;;;32.80;30.43;101389.91;7390931;19;20014;-58
2023/05/26 01:43:13;;;;;;;1.63;0.80;;;;;;;32.68;29.95;101383.13;7392353;19;20019;-58
2023/05/26 01:45:46;;;;;;;;;;;;;;;32.48;29.91;101393.00;7394308;19;20031;-57
2023/05/26 01:48:17;;;;;;;6.15;0.90;;;;;;;32.61;30.32;101392.66;7395141;19;19974;-58
2023/05/26 01:50:56;;;;;;;0.95;0.95;;;;;;;32.67;29.77;101390.28;7389897;19;20014;-58
2023/05/26 01:53:26;;;;;;;0.73;0.73;;;;;;;32.47;29.73;101396.44;7391892;19;20010;-58
2023/05/26 01:55:57;;;;;;;1.23;0.50;;;;;;;32.34;29.68;101391.75;7395355;19;20019;-57
2023/05/26 01:58:25;;;;;;;0.47;0.47;;;;;;;32.29;29.39;101395.69;7392728;19;20231;-58
2023/05/26 02:00:55;;;;;;;3.60;0.70;;;;;;;32.20;29.66;101393.47;7390375;19;20011;-58
2023/05/26 02:03:21;;;;;;;1.83;0.75;;;;;;;31.98;29.85;101403.06;7392291;19;20026;-58
2023/05/26 02:05:47;;;;;;;0.80;0.25;;;;;;;31.99;29.69;101404.59;7392713;19;20467;-58
2023/05/26 02:08:14;;;;;;;1.10;0.60;;;;;;;32.03;30.05;101408.59;7394733;19;20018;-58
2023/05/26 02:10:40;;;;;;;1.13;1.00;;;;;;;32.05;30.01;101416.66;7393071;19;20018;-58
2023/05/26 02:13:06;;;;;;;0.32;0.32;;;;;;;32.05;29.80;101405.13;7390775;19;20013;-58
2023/05/26 02:15:33;;;;;;;3.45;1.38;;;;;;;32.15;29.89;101414.63;7390807;19;20003;-58
2023/05/26 02:18:02;;;;;;;1.67;1.58;;;;;;;30.23;31.63;101413.81;7393987;19;20022;-58
2023/05/26 02:20:29;;;;;;;1.38;0.88;;;;;;;29.75;32.19;101417.84;7394947;19;20025;-58
2023/05/26 02:22:55;;;;;;;0.32;0.32;;;;;;;29.55;32.00;101416.66;7397050;19;20007;-58
2023/05/26 02:25:21;;;;;;;0.43;0.30;;;;;;;29.63;32.41;101420.28;7398954;19;20511;-58
2023/05/26 02:27:47;;;;;;;3.60;1.27;;;;;;;29.71;31.99;101423.97;7398580;19;20014;-58
2023/05/26 02:30:14;;;;;;;13.95;1.23;;;;;;;29.64;32.31;101421.84;7402197;19;20014;-58
2023/05/26 02:32:40;;;;;;;3.05;0.75;;;;;;;29.56;32.54;101418.16;7397686;19;20014;-58
2023/05/26 02:35:07;;;;;;;0.93;0.77;;;;;;;29.48;32.17;101422.38;7399304;19;20014;-58
2023/05/26 02:37:33;;;;;;;0.45;0.45;;;;;;;29.48;32.04;101423.13;7398532;19;20566;-58
2023/05/26 02:39:59;;;;;;;0.75;0.75;;;;;;;29.47;32.09;101415.09;7398538;19;20077;-58
2023/05/26 02:42:26;;;;;;;1.48;0.60;;;;;;;29.46;32.48;101414.34;7395936;19;20464;-58
2023/05/26 02:44:52;;;;;;;0.50;0.40;;;;;;;29.35;32.16;101414.69;7397549;19;20022;-58
2023/05/26 02:47:19;;;;;;;4.00;0.68;;;;;;;29.30;32.44;101415.66;7398098;19;20031;-58
2023/05/26 02:49:45;;;;;;;2.95;0.68;;;;;;;29.26;32.43;101429.59;7402180;19;20019;-58
2023/05/26 02:52:11;;;;;;;1.27;1.25;;;;;;;29.26;32.10;101429.59;7399545;19;20014;-58
2023/05/26 02:54:38;;;;;;;3.80;0.57;;;;;;;29.26;31.97;101435.31;7397987;19;20375;-58
2023/05/26 02:57:06;;;;;;;7.30;1.38;;;;;;;29.15;32.02;101424.19;7398684;19;20038;-58
2023/05/26 02:59:32;;;;;;;1.95;0.73;;;;;;;29.07;32.02;101423.38;7396515;19;20025;-58
2023/05/26 03:01:58;;;;;;;3.35;1.25;;;;;;;28.96;31.70;101435.19;7397813;19;20347;-58
2023/05/26 03:04:24;;;;;;;1.95;0.70;;;;;;;28.90;32.26;101426.75;7397086;19;20018;-58
2023/05/26 03:06:50;;;;;;;1.08;0.82;;;;;;;28.85;31.75;101424.03;7396515;19;20392;-58
2023/05/26 03:09:20;;;;;;;1.20;0.80;;;;;;;28.85;31.80;101426.91;7397107;19;20011;-58
2023/05/26 03:11:46;;;;;;;2.65;1.13;;;;;;;28.79;31.91;101426.31;7399540;19;20018;-58
2023/05/26 03:14:12;;;;;;;0.73;0.73;;;;;;;28.77;31.64;101428.97;7396871;19;20018;-58
2023/05/26 03:16:38;;;;;;;2.13;1.27;;;;;;;28.72;31.47;101421.31;7396210;19;20018;-58
2023/05/26 03:19:05;;;;;;;2.58;0.85;;;;;;;28.71;31.80;101425.50;7400300;19;20018;-58
2023/05/26 03:21:32;;;;;;;3.88;1.20;;;;;;;28.61;31.68;101427.38;7397816;19;20023;-58
2023/05/26 03:23:58;;;;;;;1.75;0.50;;;;;;;28.63;32.06;101430.44;7398890;19;20467;-58
2023/05/26 03:26:25;;;;;;;11.63;1.95;;;;;;;28.64;32.05;101424.13;7395858;19;20347;-58
2023/05/26 03:28:51;;;;;;;1.17;1.02;;;;;;;28.60;31.98;101428.69;7397777;19;20026;-58
2023/05/26 03:31:17;;;;;;;4.13;1.27;;;;;;;28.58;31.77;101428.50;7397008;19;20011;-59
2023/05/26 03:33:45;;;;;;;1.63;0.90;;;;;;;28.54;31.89;101423.84;7394248;19;20097;-59
2023/05/26 03:36:11;;;;;;;0.95;0.70;;;;;;;28.43;31.74;101424.19;7394235;19;20022;-58
2023/05/26 03:38:39;;;;;;;2.95;1.42;;;;;;;28.28;31.65;101424.09;7394009;19;20021;-58
2023/05/26 03:41:05;;;;;;;1.77;0.82;;;;;;;28.18;32.26;101430.84;7393737;19;20036;-59
2023/05/26 03:43:33;;;;;;;0.50;0.50;;;;;;;28.20;32.09;101428.19;7395686;19;20010;-58
2023/05/26 03:46:00;;;;;;;1.65;1.17;;;;;;;28.09;32.28;101435.00;7394620;19;20017;-59
2023/05/26 03:48:28;;;;;;;3.03;0.90;;;;;;;27.99;32.09;101433.97;7397577;19;20011;-59
2023/05/26 03:50:54;;;;;;;0.55;0.50;;;;;;;27.71;32.08;101428.13;7395182;19;20007;-59
2023/05/26 03:53:21;;;;;;;2.17;1.05;;;;;;;27.79;32.28;101434.69;7396542;19;20011;-59
2023/05/26 03:55:47;;;;;;;1.02;0.65;;;;;;;27.87;32.56;101432.69;7397535;19;20109;-59
2023/05/26 03:58:13;;;;;;;1.05;0.98;;;;;;;27.85;32.50;101432.50;7397186;19;20015;-59
2023/05/26 04:00:40;;;;;;;2.28;1.02;;;;;;;27.84;32.15;101425.22;7395105;19;20078;-58
2023/05/26 04:03:06;;;;;;;5.95;1.10;;;;;;;27.80;32.36;101430.53;7393718;19;20006;-58
2023/05/26 04:05:32;;;;;;;2.33;0.77;;;;;;;27.81;32.35;101425.56;7392541;19;20014;-58
2023/05/26 04:07:59;;;;;;;1.35;0.98;;;;;;;27.90;32.09;101428.69;7397285;19;20019;-58
2023/05/26 04:10:26;;;;;;;1.38;0.85;;;;;;;27.78;32.52;101427.44;7394019;19;20015;-58
2023/05/26 04:12:52;;;;;;;3.75;0.68;;;;;;;27.84;32.07;101430.94;7396292;19;20048;-58
2023/05/26 04:15:19;;;;;;;1.20;0.55;;;;;;;27.90;31.78;101428.69;7394482;19;20034;-58
2023/05/26 04:17:45;;;;;;;0.80;0.80;;;;;;;27.80;31.96;101424.78;7395499;19;20490;-58
2023/05/26 04:20:11;;;;;;;2.08;0.75;;;;;;;27.78;31.90;101422.50;7397551;19;20019;-58
2023/05/26 04:22:38;;;;;;;0.30;0.30;;;;;;;27.76;31.93;101430.09;7391931;19;20400;-59
2023/05/26 04:25:05;;;;;;;0.95;0.82;;;;;;;27.74;32.19;101432.75;7399146;19;20089;-58
2023/05/26 04:27:43;;;;;;;1.63;1.02;;;;;;;27.62;31.96;101426.53;7394752;19;20067;-58
2023/05/26 04:30:28;;;;;;;0.50;0.50;;;;;;;27.62;32.19;101432.25;7395712;19;20014;-58
2023/05/26 04:33:20;;;;;;;1.00;0.30;;;;;;;27.69;32.39;101436.53;7394481;19;20010;-58
2023/05/26 04:36:25;;;;;;;0.77;0.77;;;;;;;27.68;32.30;101434.97;7391550;19;20049;-58
2023/05/26 04:38:51;;;;;;;2.33;1.00;;;;;;;27.68;31.95;101443.56;7391672;19;20468;-59
2023/05/26 04:41:18;;;;;;;1.20;0.95;;;;;;;27.70;31.97;101438.81;7392399;19;20367;-58
2023/05/26 04:43:45;;;;;;;1.40;0.73;;;;;;;27.79;32.35;101434.69;7392968;19;20082;-59
2023/05/26 04:46:11;;;;;;;1.15;1.02;;;;;;;28.05;31.75;101434.56;7394852;19;20018;-59
2023/05/26 04:48:38;;;;;;;0.75;0.70;;;;;;;28.23;31.59;101433.59;7398389;19;20022;-58
2023/05/26 04:51:07;;;;;;;1.73;0.63;;;;;;;28.28;31.66;101434.78;7393037;19;20006;-58
2023/05/26 04:53:33;;;;;;;1.45;0.73;;;;;;;28.27;31.85;101439.72;7393459;19;20500;-58
2023/05/26 04:56:01;;;;;;;1.20;0.60;;;;;;;28.32;31.74;101435.94;7392806;19;20407;-58
2023/05/26 04:58:27;;;;;;;0.95;0.80;;;;;;;28.35;31.54;101439.78;7393567;19;20023;-58
2023/05/26 05:00:57;;;;;;;1.13;1.02;;;;;;;28.39;32.00;101432.34;7392432;19;20011;-58
2023/05/26 05:03:49;;;;;;;1.55;0.55;;;;;;;28.44;31.93;101430.66;7392853;19;20025;-58
2023/05/26 05:06:24;;;;;;;0.63;0.60;;;;;;;28.52;31.87;101440.09;7395134;19;20578;-58
2023/05/26 05:08:51;;;;;;;0.85;0.80;;;;;;;28.58;31.88;101440.72;7393862;19;20013;-58
2023/05/26 05:11:17;;;;;;;1.65;0.95;;;;;;;28.56;31.85;101439.72;7393163;19;20034;-58
2023/05/26 05:13:43;;;;;;;1.77;0.88;;;;;;;28.54;32.06;101446.78;7392904;19;20042;-58
2023/05/26 05:16:09;;;;;;;2.95;1.23;;;;;;;28.61;32.43;101450.31;7394699;19;20462;-57
2023/05/26 05:18:36;;;;;;;0.75;0.63;;;;;;;28.60;32.24;101448.75;7395127;19;20021;-58
2023/05/26 05:21:03;;;;;;;1.38;0.50;;;;;;;28.72;32.27;101450.00;7392415;19;20074;-58
2023/05/26 05:23:34;;;;;;;1.17;0.70;;;;;;;28.68;32.23;101453.22;7395213;19;20717;-58
2023/05/26 05:26:02;;;;;;;1.38;0.73;;;;;;;28.79;32.39;101455.00;7395221;19;20010;-58
2023/05/26 05:28:29;;;;;;;14.63;1.15;;;;;;;28.86;32.21;101454.25;7394827;19;20087;-58
2023/05/26 05:31:21;;;;;;;1.42;1.33;;;;;;;28.95;32.40;101463.13;7391191;19;20007;-58
2023/05/26 05:33:48;;;;;;;3.47;0.43;;;;;;;28.99;32.43;101457.78;7392961;19;20032;-58
2023/05/26 05:36:15;;;;;;;1.35;0.85;;;;;;;29.02;32.60;101464.50;7391613;19;20019;-58
2023/05/26 05:38:41;;;;;;;1.75;0.60;;;;;;;29.08;32.73;101468.72;7391264;19;20041;-58
2023/05/26 05:41:09;;;;;;;0.60;0.60;;;;;;;28.95;32.88;101466.00;7395974;19;20010;-58
2023/05/26 05:43:35;;;;;;;2.13;1.20;;;;;;;28.85;32.95;101470.69;7391495;19;20525;-58
2023/05/26 05:46:02;;;;;;;1.70;0.55;;;;;;;29.34;32.60;101470.59;7394046;19;20035;-58
2023/05/26 05:48:47;;;;;;;0.70;0.65;;;;;;;29.45;32.67;101464.50;7396787;19;20355;-58
2023/05/26 05:51:18;;;;;;;5.77;0.77;;;;;;;29.55;32.44;101468.34;7395656;19;21067;-58
2023/05/26 05:53:45;;;;;;;4.30;0.70;;;;;;;29.68;32.60;101465.31;7392380;19;20756;-58
2023/05/26 05:56:11;;;;;;;4.18;0.75;;;;;;;29.75;32.82;101470.34;7400774;19;20010;-58
2023/05/26 05:58:38;;;;;;;2.08;1.15;;;;;;;29.83;32.71;101465.34;7398799;19;20026;-58
2023/05/26 06:01:04;;;;;;;1.65;1.45;;;;;;;29.99;32.80;101469.75;7400331;19;20019;-58
2023/05/26 06:03:30;;;;;;;8.57;1.27;;;;;;;30.07;32.36;101466.91;7402466;19;20494;-58
2023/05/26 06:05:56;;;;;;;2.28;0.40;;;;;;;30.18;32.35;101472.28;7399203;19;20381;-58
2023/05/26 06:08:23;;;;;;;7.40;1.33;;;;;;;30.18;32.63;101471.50;7399275;19;20019;-58
2023/05/26 06:10:50;;;;;;;1.90;1.13;;;;;;;30.16;32.46;101477.06;7398781;19;20474;-58
2023/05/26 06:13:16;;;;;;;5.18;1.05;;;;;;;30.21;32.74;101476.88;7399532;19;20010;-58
2023/05/26 06:15:42;;;;;;;1.27;0.50;;;;;;;30.29;32.86;101474.00;7399172;19;20022;-59
2023/05/26 06:18:09;;;;;;;6.97;0.82;;;;;;;30.31;33.02;101474.97;7400769;19;20010;-58
2023/05/26 06:20:35;;;;;;;0.47;0.47;;;;;;;30.38;33.19;101474.22;7398159;19;20019;-58
2023/05/26 06:23:01;;;;;;;0.98;0.35;;;;;;;30.54;32.96;101483.56;7400753;19;20002;-59
2023/05/26 06:25:28;;;;;;;9.13;0.57;;;;;;;30.70;33.09;101482.97;7398267;19;20013;-58
2023/05/26 06:27:54;;;;;;;4.25;1.00;;;;;;;30.91;33.41;101479.88;7398219;19;20023;-58
2023/05/26 06:30:21;;;;;;;1.27;0.90;;;;;;;31.06;32.92;101476.94;7397785;19;20021;-59
2023/05/26 06:32:54;;;;;;;1.10;0.70;;;;;;;31.20;33.44;101478.25;7399108;19;20080;-58
2023/05/26 06:35:20;;;;;;;3.80;0.60;;;;;;;31.27;33.10;101486.06;7398006;19;20015;-59
2023/05/26 06:37:47;;;;;;;0.20;0.20;;;;;;;31.36;33.28;101484.69;7397895;19;20011;-58
2023/05/26 06:40:13;;;;;;;0.40;0.40;;;;;;;31.42;33.25;101479.50;7396797;19;20372;-58
2023/05/26 06:42:40;;;;;;;7.38;1.13;;;;;;;31.54;33.75;101488.44;7396930;19;20045;-58
2023/05/26 06:45:08;;;;;;;0.88;0.50;;;;;;;31.69;33.25;101494.13;7398028;19;20040;-58
2023/05/26 06:47:36;;;;;;;2.92;0.98;;;;;;;31.75;33.31;101486.78;7398815;19;20070;-58
2023/05/26 06:50:10;;;;;;;3.65;1.20;;;;;;;31.79;33.25;101495.03;7397678;19;20018;-58
2023/05/26 06:52:37;;;;;;;1.58;1.15;;;;;;;31.82;32.97;101485.22;7398493;19;20023;-58
2023/05/26 06:55:03;;;;;;;3.70;2.15;;;;;;;31.85;33.27;101496.34;7397521;19;20010;-58
2023/05/26 06:57:30;;;;;;;0.82;0.65;;;;;;;31.64;33.36;101484.34;7398147;19;20035;-59
2023/05/26 06:59:56;;;;;;;5.25;0.90;;;;;;;31.76;33.42;101488.34;7396091;19;20062;-59
2023/05/26 07:02:23;;;;;;;0.80;0.60;;;;;;;31.79;33.70;101492.16;7394809;19;20092;-58
2023/05/26 07:04:55;;;;;;;1.20;0.52;;;;;;;31.88;33.46;101489.38;7396026;19;20022;-58
2023/05/26 07:07:21;;;;;;;3.20;0.90;;;;;;;32.06;33.26;101488.13;7394047;19;20066;-58
2023/05/26 07:09:48;;;;;;;0.70;0.70;;;;;;;32.18;33.10;101488.44;7397358;19;20022;-58
2023/05/26 07:12:15;;;;;;;3.42;0.80;;;;;;;32.40;33.17;101490.34;7397322;19;20042;-59
2023/05/26 07:14:46;;;;;;;2.33;0.93;;;;;;;32.64;32.69;101492.44;7396384;19;20018;-58
2023/05/26 07:17:14;;;;;;;7.22;0.75;;;;;;;32.63;32.81;101505.34;7397149;19;20022;-58
2023/05/26 07:19:43;;;;;;;1.75;0.50;;;;;;;32.72;32.09;101496.03;7400669;19;20007;-58
2023/05/26 07:22:09;;;;;;;3.80;0.80;;;;;;;32.74;32.37;101493.31;7395575;19;20047;-58
2023/05/26 07:24:43;;;;;;;2.00;0.80;;;;;;;32.82;32.54;101485.34;7400209;19;20010;-58
2023/05/26 07:27:09;;;;;;;4.68;0.75;;;;;;;32.81;32.71;101486.69;7395462;19;20016;-58
2023/05/26 07:29:37;;;;;;;1.75;0.85;;;;;;;32.81;33.06;101483.06;7396863;19;20439;-58
2023/05/26 07:32:04;;;;;;;5.10;0.95;;;;;;;32.90;32.15;101474.47;7396397;19;20018;-58
2023/05/26 07:34:30;;;;;;;1.95;0.93;;;;;;;32.94;32.48;101481.94;7396393;19;20014;-58
2023/05/26 07:36:56;;;;;;;0.43;0.43;;;;;;;32.96;32.60;101487.88;7396042;19;20045;-58
2023/05/26 07:39:23;;;;;;;0.68;0.57;;;;;;;33.07;31.56;101490.28;7395893;19;20011;-58
2023/05/26 07:41:49;;;;;;;0.32;0.22;;;;;;;33.19;31.27;101476.84;7395865;19;20490;-58
2023/05/26 07:44:15;;;;;;;1.85;1.00;;;;;;;33.29;31.27;101484.22;7401595;19;20022;-58
2023/05/26 07:46:41;;;;;;;0.40;0.30;;;;;;;33.38;31.04;101474.06;7396032;19;20031;-58
2023/05/26 07:49:07;;;;;;;2.53;0.63;;;;;;;33.42;31.15;101480.19;7400331;19;20350;-58
2023/05/26 07:51:33;;;;;;;6.03;1.23;;;;;;;33.47;31.05;101482.81;7397650;19;20040;-59
2023/05/26 07:53:59;;;;;;;1.40;0.77;;;;;;;33.52;31.36;101483.94;7400461;19;20485;-58
2023/05/26 07:56:26;;;;;;;0.30;0.28;;;;;;;33.63;31.50;101487.03;7396525;19;20523;-59
2023/05/26 07:58:52;;;;;;;0.75;0.20;;;;;;;33.82;30.89;101495.06;7396987;19;20037;-59
2023/05/26 08:01:19;;;;;;;0.88;0.82;;;;;;;33.96;30.72;101486.75;7395833;19;20011;-59
2023/05/26 08:03:47;;;;;;;0.93;0.55;;;;;;;34.08;30.39;101494.28;7399031;19;20014;-58
2023/05/26 08:06:13;;;;;;;7.03;0.77;;;;;;;34.16;30.48;101492.03;7399967;19;20011;-58
2023/05/26 08:08:40;;;;;;;1.13;0.30;;;;;;;34.26;30.10;101492.81;7399586;19;20026;-58
2023/05/26 08:11:06;;;;;;;1.27;0.32;;;;;;;34.37;30.79;101488.59;7396401;19;20003;-58
2023/05/26 08:13:32;;;;;;;4.45;1.27;;;;;;;34.51;30.80;101491.84;7396647;19;20080;-58
2023/05/26 08:15:59;;;;;;;0.68;0.40;;;;;;;34.62;30.10;101492.03;7395494;19;20025;-59
2023/05/26 08:18:25;;;;;;;1.20;0.80;;;;;;;34.85;30.02;101482.88;7396712;19;20011;-59
2023/05/26 08:20:52;;;;;;;3.75;0.82;;;;;;;35.08;30.24;101483.22;7396115;19;20018;-58
2023/05/26 08:23:19;;;;;;;1.17;0.65;;;;;;;35.23;29.77;101477.13;7397389;19;20018;-59
2023/05/26 08:25:45;;;;;;;11.13;0.38;;;;;;;35.32;30.04;101479.25;7399381;19;20002;-58
2023/05/26 08:28:12;;;;;;;0.52;0.22;;;;;;;35.53;30.12;101488.06;7394567;19;20014;-58
2023/05/26 08:30:40;;;;;;;1.05;0.30;;;;;;;35.68;29.59;101481.91;7393738;19;20022;-58
2023/05/26 08:33:06;;;;;;;3.72;0.20;;;;;;;35.85;28.65;101480.16;7397146;19;20014;-58
2023/05/26 08:35:32;;;;;;;2.45;0.75;;;;;;;35.98;29.59;101482.59;7394316;19;20010;-59
2023/05/26 08:38:00;;;;;;;5.18;0.40;;;;;;;36.05;29.23;101478.75;7393852;19;20481;-58
2023/05/26 08:40:27;;;;;;;0.43;0.30;;;;;;;36.32;28.52;101470.53;7395495;19;20364;-61
2023/05/26 08:42:58;;;;;;;1.13;0.38;;;;;;;36.46;29.08;101471.50;7392525;19;20022;-61
2023/05/26 08:45:25;;;;;;;4.53;0.30;;;;;;;36.69;29.65;101477.44;7394926;19;20372;-61
2023/05/26 08:47:53;;;;;;;9.32;0.70;;;;;;;36.75;29.55;101474.22;7397275;19;20030;-59
2023/05/26 08:50:19;;;;;;;12.27;0.98;;;;;;;36.65;27.53;101482.97;7394245;19;20356;-58
2023/05/26 08:52:48;;;;;;;0.20;0.10;;;;;;;36.74;28.04;101485.06;7395689;19;20019;-58
2023/05/26 08:55:15;;;;;;;0.17;0.17;;;;;;;37.03;28.50;101488.53;7392514;19;20062;-59
2023/05/26 08:57:41;;;;;;;2.75;0.30;;;;;;;37.14;27.54;101481.97;7393258;19;20351;-59
2023/05/26 09:00:08;;;;;;;3.38;0.40;;;;;;;37.33;27.05;101474.47;7394978;19;20014;-59
2023/05/26 09:02:35;;;;;;;0.77;0.43;;;;;;;37.35;26.51;101489.16;7394335;19;20010;-59
2023/05/26 09:05:01;;;;;;;1.85;0.28;;;;;;;37.41;26.85;101480.84;7394185;19;20031;-58
2023/05/26 09:07:27;;;;;;;10.80;0.82;;;;;;;37.39;27.78;101478.56;7393291;19;20114;-59
2023/05/26 09:09:53;;;;;;;7.03;0.77;;;;;;;37.52;26.45;101471.38;7393389;19;20022;-58
2023/05/26 09:12:19;;;;;;;0.55;0.10;;;;;;;37.48;26.39;101476.94;7394718;19;20034;-58
2023/05/26 09:14:46;;;;;;;1.30;0.55;;;;;;;37.47;26.51;101475.44;7394284;19;20014;-59
2023/05/26 09:17:13;;;;;;;2.55;0.77;;;;;;;37.63;26.14;101477.22;7393148;19;20010;-59
2023/05/26 09:19:40;;;;;;;5.05;1.23;;;;;;;37.87;26.03;101478.81;7397318;19;20003;-59
2023/05/26 09:22:08;;;;;;;4.65;0.47;;;;;;;38.11;25.74;101473.75;7392819;19;20018;-59
2023/05/26 09:24:49;;;;;;;3.35;0.50;;;;;;;38.25;26.52;101477.53;7397148;19;20349;-58
2023/05/26 09:27:22;;;;;;;5.60;0.70;;;;;;;38.03;25.88;101473.25;7393215;19;20010;-58
2023/05/26 09:29:48;;;;;;;4.07;0.65;;;;;;;37.99;26.49;101478.78;7392006;19;20364;-59
2023/05/26 09:32:15;;;;;;;6.25;0.57;;;;;;;37.89;25.54;101478.16;7392982;19;20027;-58
2023/05/26 09:34:41;;;;;;;7.25;1.13;;;;;;;37.70;24.50;101478.38;7392492;19;20066;-58
2023/05/26 09:37:11;;;;;;;0.30;0.20;;;;;;;37.95;25.48;101467.66;7392646;19;20466;-58
2023/05/26 09:39:38;;;;;;;0.43;0.13;;;;;;;38.22;25.47;101467.16;7392961;19;20042;-59
2023/05/26 09:42:08;;;;;;;5.50;0.63;;;;;;;38.67;25.40;101459.75;7390724;19;20017;-58
2023/05/26 09:44:35;;;;;;;0.15;0.10;;;;;;;38.78;24.77;101460.38;7393898;19;20070;-59
2023/05/26 09:47:01;;;;;;;0.55;0.40;;;;;;;38.64;24.87;101458.09;7392164;19;20352;-58
2023/05/26 09:49:27;;;;;;;0.75;0.35;;;;;;;38.71;25.02;101455.56;7397087;19;20007;-58
2023/05/26 09:51:54;;;;;;;12.18;0.75;;;;;;;38.62;24.81;101455.06;7392036;19;20027;-58
2023/05/26 09:54:21;;;;;;;0.90;0.43;;;;;;;38.59;25.28;101455.59;7393867;19;20018;-59
2023/05/26 09:56:53;;;;;;;0.47;0.17;;;;;;;38.65;24.69;101459.63;7392391;19;20341;-58
2023/05/26 09:59:26;;;;;;;0.75;0.55;;;;;;;38.63;24.32;101452.91;7392517;19;20014;-58
2023/05/26 10:01:53;;;;;;;0.35;0.10;;;;;;;38.65;24.54;101447.97;7390283;19;20017;-59
2023/05/26 10:04:19;;;;;;;0.95;0.80;;;;;;;38.72;25.14;101454.19;7396843;19;20015;-58
2023/05/26 10:06:49;;;;;;;1.58;0.63;;;;;;;38.77;24.41;101453.03;7392058;19;20015;-58
2023/05/26 10:09:16;;;;;;;2.67;0.35;;;;;;;38.91;24.68;101450.94;7392349;19;20011;-59
2023/05/26 10:11:46;;;;;;;8.73;0.82;;;;;;;38.92;24.77;101449.56;7392629;19;20407;-59
2023/05/26 10:14:13;;;;;;;1.40;0.40;;;;;;;38.95;24.24;101445.34;7393556;19;20039;-58
2023/05/26 10:16:41;;;;;;;0.32;0.17;;;;;;;39.03;25.08;101445.84;7397088;19;20011;-59
2023/05/26 10:19:07;;;;;;;5.57;0.28;;;;;;;38.97;23.97;101448.38;7395949;19;20034;-58
2023/05/26 10:21:38;;;;;;;1.15;0.60;;;;;;;39.00;24.60;101447.09;7391664;19;20035;-59
2023/05/26 10:24:12;;;;;;;0.63;0.20;;;;;;;38.88;23.78;101449.31;7394158;19;20017;-58
2023/05/26 10:26:54;;;;;;;3.80;0.20;;;;;;;39.03;24.05;101446.56;7392071;19;20039;-58
2023/05/26 10:29:29;;;;;;;3.28;0.35;;;;;;;39.27;24.61;101453.06;7388446;19;20099;-62
2023/05/26 10:31:56;;;;;;;1.10;0.10;;;;;;;39.42;24.65;101446.63;7390468;19;20034;-64
2023/05/26 10:34:39;;;;;;;0.45;0.10;;;;;;;39.32;24.23;101446.06;7391253;19;20019;-62
2023/05/26 10:37:16;;;;;;;4.47;0.20;;;;;;;39.25;24.23;101442.06;7387894;19;20055;-63
2023/05/26 10:39:42;;;;;;;1.95;0.43;;;;;;;39.43;24.65;101442.31;7391396;19;20463;-62
2023/05/26 10:42:17;;;;;;;4.38;0.38;;;;;;;39.61;24.35;101440.47;7394947;19;20023;-61
2023/05/26 10:44:50;;;;;;;6.20;0.77;;;;;;;39.68;23.70;101442.28;7398008;19;20426;-62
2023/05/26 10:47:17;;;;;;;1.55;0.30;;;;;;;39.73;23.86;101452.78;7399031;19;20007;-61
2023/05/26 10:49:58;;;;;;;1.30;0.65;;;;;;;39.72;23.48;101445.44;7402449;19;20461;-61
2023/05/26 10:52:24;;;;;;;;;;;;;;;39.69;23.39;101446.72;7396039;19;20356;-62
2023/05/26 10:54:51;;;;;;;0.17;0.17;;;;;;;39.68;24.33;101439.38;7397633;19;19922;-62
2023/05/26 10:57:32;;;;;;;3.13;0.38;;;;;;;39.50;24.59;101449.25;7397557;19;20043;-62
2023/05/26 11:00:25;;;;;;;0.82;0.40;;;;;;;39.04;24.21;101444.41;7398731;19;20029;-62
2023/05/26 11:02:52;;;;;;;0.52;0.20;;;;;;;38.81;23.86;101442.38;7397286;19;20019;-62
2023/05/26 11:05:33;;;;;;;1.65;0.40;;;;;;;38.72;24.88;101442.53;7397820;19;20011;-61
2023/05/26 11:07:59;;;;;;;1.92;0.63;;;;;;;38.75;25.02;101438.34;7396613;19;20368;-61
2023/05/26 11:10:26;;;;;;;0.17;0.17;;;;;;;38.86;25.18;101437.53;7396181;19;20011;-61
2023/05/26 11:12:57;;;;;;;3.35;0.70;;;;;;;39.19;24.53;101446.78;7395090;19;20471;-61
2023/05/26 11:15:28;;;;;;;1.13;0.40;;;;;;;39.20;23.73;101439.56;7399706;19;20044;-59
2023/05/26 11:18:04;;;;;;;2.60;0.70;;;;;;;39.52;24.24;101444.28;7399171;19;20535;-60
2023/05/26 11:20:31;;;;;;;4.03;0.30;;;;;;;39.68;24.74;101432.81;7396438;19;20006;-61
2023/05/26 11:22:58;;;;;;;2.03;1.02;;;;;;;39.84;24.21;101439.50;7393758;19;20011;-60
2023/05/26 11:25:28;;;;;;;3.00;0.17;;;;;;;40.21;23.63;101437.16;7396395;19;20015;-60
2023/05/26 11:27:54;;;;;;;1.53;0.60;;;;;;;39.98;23.52;101432.28;7396818;19;20014;-62
2023/05/26 11:30:21;;;;;;;3.78;0.90;;;;;;;40.24;23.62;101429.28;7396845;19;20018;-62